Terminal Aerodrome Forecast
Issued by NWS

Home | Current Version | Previous Version | Text Only | Print | Product List | Glossary On
Versions: 1 2 3 4 5 6 7 8 9 10 11 12 13 14 15 16 17
854
FTUS41 KAKQ 122002 AAA
TAFPHF
TAF AMD
KPHF 122002Z 1220/1318 12006KT 3SM -SN BR OVC040
      TEMPO 1220/1224 1SM -SN BR OVC015
     FM130000 VRB03KT P6SM OVC045
     FM130800 30012G20KT P6SM SCT090
     FM131300 32017G30KT P6SM SKC=

USA.gov is the U.S. government's official web portal to all federal, state and local government web resources and services.